Time;durP1;ratioP1;P1;durP2;ratioP2;P2;SDS_P1;SDS_P2;PMS_P1;PMS_P2;Temp;Humidity;BMP_temperature;BMP_pressure;BME280_temperature;BME280_humidity;BME280_pressure;Samples;Min_cycle;Max_cycle;Signal;HPM_P1;HPM_P2
2021/11/22 00:00:36;;;;;;;12.75;6.97;;;21.40;99.90;;;;;;5036181;28;20104;-75
2021/11/22 00:03:05;;;;;;;15.00;7.15;;;21.30;99.90;;;;;;5035800;28;20026;-75
2021/11/22 00:05:33;;;;;;;14.07;7.00;;;21.70;99.90;;;;;;5036126;28;20033;-73
2021/11/22 00:08:00;;;;;;;19.38;6.97;;;21.60;99.90;;;;;;5035289;28;20049;-74
2021/11/22 00:10:28;;;;;;;11.00;6.30;;;21.70;99.90;;;;;;5036493;28;20035;-73
2021/11/22 00:12:55;;;;;;;19.13;7.78;;;21.40;99.90;;;;;;5036253;28;20067;-76
2021/11/22 00:15:23;;;;;;;15.60;7.72;;;21.60;99.90;;;;;;5036047;28;20022;-74
2021/11/22 00:17:50;;;;;;;11.32;6.40;;;21.70;99.90;;;;;;5035863;28;20044;-76
2021/11/22 00:20:20;;;;;;;15.77;6.70;;;21.50;99.90;;;;;;5034446;28;20021;-74
2021/11/22 00:22:48;;;;;;;16.40;6.80;;;21.30;99.90;;;;;;5036084;28;20030;-74
2021/11/22 00:25:16;;;;;;;13.95;6.97;;;21.00;99.90;;;;;;5035819;28;20622;-74
2021/11/22 00:27:45;;;;;;;18.55;6.65;;;20.80;99.90;;;;;;5034277;28;20113;-73
2021/11/22 00:30:14;;;;;;;14.10;6.63;;;20.50;99.90;;;;;;5034220;28;20032;-73
2021/11/22 00:32:45;;;;;;;14.98;7.57;;;20.50;99.90;;;;;;5035437;28;20096;-73
2021/11/22 00:35:15;;;;;;;14.07;7.40;;;20.50;99.90;;;;;;5035751;28;20034;-74
2021/11/22 00:37:49;;;;;;;16.63;6.93;;;20.40;99.90;;;;;;5034097;28;20025;-74
2021/11/22 00:40:16;;;;;;;13.35;6.63;;;20.70;99.90;;;;;;5034019;28;20105;-73
2021/11/22 00:42:47;;;;;;;12.38;6.85;;;21.30;99.90;;;;;;5035284;28;20049;-73
2021/11/22 00:45:15;;;;;;;15.45;7.10;;;21.50;99.90;;;;;;5033593;28;20075;-73
2021/11/22 00:47:43;;;;;;;17.33;7.78;;;21.60;99.90;;;;;;5034041;28;20490;-74
2021/11/22 00:50:11;;;;;;;12.30;6.28;;;22.20;99.90;;;;;;5035044;28;20100;-74
2021/11/22 00:52:39;;;;;;;10.02;6.65;;;21.90;99.90;;;;;;5035282;28;20022;-75
2021/11/22 00:55:07;;;;;;;10.77;6.20;;;22.00;99.90;;;;;;5034513;28;20085;-74
2021/11/22 00:57:34;;;;;;;13.85;6.43;;;22.40;99.90;;;;;;5033565;28;20367;-75
2021/11/22 01:00:02;;;;;;;15.82;6.32;;;22.00;99.90;;;;;;5034749;28;20032;-75
2021/11/22 01:02:29;;;;;;;14.13;6.22;;;22.00;99.90;;;;;;5034497;28;20026;-74
2021/11/22 01:04:56;;;;;;;16.70;6.05;;;22.10;99.90;;;;;;5032864;28;20045;-74
2021/11/22 01:07:24;;;;;;;17.38;6.45;;;21.90;99.90;;;;;;5034287;28;20126;-75
2021/11/22 01:09:51;;;;;;;15.88;6.25;;;22.00;99.90;;;;;;5034681;28;20024;-74
2021/11/22 01:12:18;;;;;;;14.65;6.18;;;21.80;99.90;;;;;;5034800;28;20025;-75
2021/11/22 01:14:46;;;;;;;12.60;5.82;;;21.60;99.90;;;;;;5034597;28;20029;-76
2021/11/22 01:17:15;;;;;;;18.58;6.88;;;21.20;99.90;;;;;;5034793;28;20072;-75
2021/11/22 01:19:42;;;;;;;12.35;6.10;;;21.40;99.90;;;;;;5034774;28;20028;-75
2021/11/22 01:22:10;;;;;;;10.65;6.05;;;21.40;99.90;;;;;;5033264;28;20021;-75
2021/11/22 01:24:37;;;;;;;13.25;6.45;;;21.30;99.90;;;;;;5034405;28;20039;-75
2021/11/22 01:27:05;;;;;;;12.13;5.93;;;21.10;99.90;;;;;;5034349;28;20026;-77
2021/11/22 01:29:32;;;;;;;13.18;5.88;;;21.20;99.90;;;;;;5033092;28;20022;-76
2021/11/22 01:31:59;;;;;;;12.77;6.60;;;21.10;99.90;;;;;;5033035;28;20389;-76
2021/11/22 01:34:28;;;;;;;12.25;6.63;;;21.20;99.90;;;;;;5034596;28;20018;-76
2021/11/22 01:36:56;;;;;;;11.77;6.53;;;21.10;99.90;;;;;;5034125;28;20044;-75
2021/11/22 01:39:23;;;;;;;10.32;6.00;;;21.10;99.90;;;;;;5034077;28;20030;-75
2021/11/22 01:41:51;;;;;;;8.57;5.80;;;21.00;99.90;;;;;;5032730;28;20036;-75
2021/11/22 01:44:18;;;;;;;7.40;5.45;;;21.20;99.90;;;;;;5034030;28;20052;-75
2021/11/22 01:46:49;;;;;;;8.32;5.78;;;21.50;99.90;;;;;;5032814;28;20025;-74
2021/11/22 01:49:18;;;;;;;9.40;6.20;;;21.40;99.90;;;;;;5032637;28;20084;-75
2021/11/22 01:51:46;;;;;;;11.35;6.15;;;21.80;99.90;;;;;;5034093;28;20026;-74
2021/11/22 01:54:16;;;;;;;9.15;6.18;;;21.70;99.90;;;;;;5032757;28;20545;-77
2021/11/22 01:56:47;;;;;;;9.27;6.23;;;21.70;99.90;;;;;;5033466;28;20029;-75
2021/11/22 01:59:15;;;;;;;;;;;21.70;99.90;;;;;;5033153;28;20289;-74
2021/11/22 02:01:42;;;;;;;7.97;5.50;;;21.80;99.90;;;;;;5033851;28;19916;-75
2021/11/22 02:04:11;;;;;;;10.50;5.07;;;21.80;99.90;;;;;;5033512;28;20449;-75
2021/11/22 02:06:38;;;;;;;8.02;5.07;;;21.70;99.90;;;;;;5032559;28;20028;-76
2021/11/22 02:09:06;;;;;;;7.82;5.85;;;21.70;99.90;;;;;;5032367;28;20508;-74
2021/11/22 02:11:35;;;;;;;7.22;6.18;;;21.30;99.90;;;;;;5033736;28;20022;-74
2021/11/22 02:14:04;;;;;;;7.85;5.82;;;21.20;99.90;;;;;;5032139;28;20100;-73
2021/11/22 02:16:32;;;;;;;9.60;6.75;;;21.10;99.90;;;;;;5033882;28;20025;-73
2021/11/22 02:18:59;;;;;;;7.85;6.20;;;20.60;99.90;;;;;;5033745;28;20023;-75
2021/11/22 02:21:26;;;;;;;7.63;6.43;;;20.60;99.90;;;;;;5033092;28;20064;-74
2021/11/22 02:23:53;;;;;;;7.82;6.93;;;20.60;99.90;;;;;;5033334;28;20021;-73
2021/11/22 02:26:21;;;;;;;8.00;7.20;;;20.50;99.90;;;;;;5033635;28;20105;-74
2021/11/22 02:28:48;;;;;;;9.07;6.95;;;20.60;99.90;;;;;;5033374;28;20025;-75
2021/11/22 02:31:16;;;;;;;8.23;5.95;;;20.40;99.90;;;;;;5033343;28;20033;-74
2021/11/22 02:33:43;;;;;;;10.45;6.65;;;20.20;99.90;;;;;;5031966;28;20440;-73
2021/11/22 02:36:10;;;;;;;12.88;6.53;;;20.40;99.90;;;;;;5032040;28;20057;-75
2021/11/22 02:38:39;;;;;;;11.52;7.00;;;20.50;99.90;;;;;;5032052;28;20036;-74
2021/11/22 02:41:10;;;;;;;8.50;5.80;;;20.60;99.90;;;;;;5033418;28;20109;-73
2021/11/22 02:43:40;;;;;;;6.57;5.97;;;20.70;99.90;;;;;;5033380;28;20053;-75
2021/11/22 02:46:08;;;;;;;11.67;6.13;;;20.40;99.90;;;;;;5033216;28;20481;-75
2021/11/22 02:48:36;;;;;;;12.35;5.80;;;20.70;99.90;;;;;;5033600;28;20097;-74
2021/11/22 02:51:05;;;;;;;9.15;5.72;;;21.00;99.90;;;;;;5031583;28;20067;-74
2021/11/22 02:53:33;;;;;;;11.77;5.38;;;21.20;99.90;;;;;;5033322;28;20390;-76
2021/11/22 02:56:06;;;;;;;8.80;5.50;;;21.60;99.90;;;;;;5033140;28;20017;-74
2021/11/22 02:58:36;;;;;;;10.52;6.05;;;21.70;99.90;;;;;;5033332;28;20033;-74
2021/11/22 03:01:06;;;;;;;8.80;5.13;;;22.30;99.90;;;;;;5033475;28;20021;-74
2021/11/22 03:03:37;;;;;;;9.60;5.25;;;22.50;99.90;;;;;;5032702;28;20038;-73
2021/11/22 03:06:11;;;;;;;10.77;5.32;;;22.60;99.90;;;;;;5032064;28;20022;-74
2021/11/22 03:08:44;;;;;;;9.30;4.55;;;22.80;99.90;;;;;;5034474;28;20033;-75
2021/11/22 03:11:13;;;;;;;9.20;4.50;;;23.10;99.90;;;;;;5037182;28;20428;-72
2021/11/22 03:13:42;;;;;;;11.98;5.18;;;23.40;99.90;;;;;;5035253;28;20098;-74
2021/11/22 03:16:11;;;;;;;11.00;5.55;;;23.50;99.90;;;;;;5035448;28;20120;-74
2021/11/22 03:18:39;;;;;;;12.05;5.07;;;23.60;99.90;;;;;;5036799;28;20025;-76
2021/11/22 03:21:06;;;;;;;8.20;4.75;;;23.90;99.90;;;;;;5035561;28;20516;-73
2021/11/22 03:23:36;;;;;;;9.25;4.65;;;24.00;99.90;;;;;;5036866;28;20026;-74
2021/11/22 03:26:03;;;;;;;9.95;4.22;;;23.70;99.90;;;;;;5035338;28;20022;-74
2021/11/22 03:28:31;;;;;;;8.15;4.20;;;24.20;99.90;;;;;;5036869;28;20045;-75
2021/11/22 03:30:59;;;;;;;11.20;4.50;;;24.10;99.90;;;;;;5036696;28;20028;-75
2021/11/22 03:33:27;;;;;;;10.38;3.90;;;24.10;99.90;;;;;;5036615;28;20025;-74
2021/11/22 03:35:55;;;;;;;12.07;4.60;;;23.80;99.90;;;;;;5035412;28;20024;-74
2021/11/22 03:38:25;;;;;;;13.43;4.65;;;23.60;99.90;;;;;;5035316;28;20029;-74
2021/11/22 03:40:55;;;;;;;8.75;4.25;;;24.00;99.90;;;;;;5035219;28;20401;-74
2021/11/22 03:43:33;;;;;;;8.35;4.43;;;24.20;99.90;;;;;;5035525;28;20025;-75
2021/11/22 03:46:01;;;;;;;11.50;4.60;;;24.50;99.90;;;;;;5034954;28;20029;-74
2021/11/22 03:48:30;;;;;;;10.23;4.82;;;24.50;99.90;;;;;;5036268;28;20030;-75
2021/11/22 03:50:57;;;;;;;11.57;4.15;;;24.60;99.90;;;;;;5036067;28;20024;-75
2021/11/22 03:53:25;;;;;;;9.75;4.00;;;25.00;99.90;;;;;;5036025;28;20025;-74
2021/11/22 03:55:52;;;;;;;13.35;4.20;;;25.30;99.90;;;;;;5034468;28;20022;-73
2021/11/22 03:58:19;;;;;;;11.52;4.20;;;25.00;99.90;;;;;;5035941;28;20044;-73
2021/11/22 04:00:47;;;;;;;11.27;4.25;;;24.80;99.90;;;;;;5036213;28;20021;-74
2021/11/22 04:03:14;;;;;;;11.63;3.90;;;24.70;99.90;;;;;;5035818;28;20489;-75
2021/11/22 04:05:42;;;;;;;13.20;5.03;;;24.60;99.90;;;;;;5035892;28;20398;-74
2021/11/22 04:08:09;;;;;;;9.77;4.00;;;24.90;99.90;;;;;;5034391;28;20032;-75
2021/11/22 04:10:38;;;;;;;8.82;3.75;;;25.30;99.90;;;;;;5035865;28;20029;-74
2021/11/22 04:13:06;;;;;;;11.25;3.92;;;25.70;99.90;;;;;;5035717;28;20156;-74
2021/11/22 04:15:34;;;;;;;9.63;3.67;;;25.60;99.90;;;;;;5035585;28;20021;-74
2021/11/22 04:18:01;;;;;;;10.98;4.20;;;25.60;99.90;;;;;;5035824;28;20025;-75
2021/11/22 04:20:29;;;;;;;9.40;4.07;;;25.30;99.90;;;;;;5035266;28;20025;-75
2021/11/22 04:22:57;;;;;;;8.63;3.65;;;25.40;99.90;;;;;;5036030;28;20529;-74
2021/11/22 04:25:25;;;;;;;11.57;4.00;;;25.20;99.90;;;;;;5035456;28;20022;-74
2021/11/22 04:27:52;;;;;;;12.65;4.30;;;24.80;99.90;;;;;;5034481;28;20386;-73
2021/11/22 04:30:20;;;;;;;10.05;4.13;;;24.20;99.90;;;;;;5035638;28;20045;-74
2021/11/22 04:32:47;;;;;;;9.30;3.70;;;23.70;99.90;;;;;;5035746;28;20413;-74
2021/11/22 04:35:15;;;;;;;11.57;3.70;;;23.40;99.90;;;;;;5035847;28;20387;-75
2021/11/22 04:37:44;;;;;;;12.52;4.07;;;23.20;99.90;;;;;;5034428;28;20044;-74
2021/11/22 04:40:14;;;;;;;11.32;3.55;;;23.00;99.90;;;;;;5033908;28;20077;-75
2021/11/22 04:42:47;;;;;;;11.95;4.22;;;22.90;99.90;;;;;;5034159;28;20026;-75
2021/11/22 04:45:29;;;;;;;10.05;4.57;;;22.80;99.90;;;;;;5033880;28;20025;-74
2021/11/22 04:47:59;;;;;;;11.25;4.25;;;22.80;99.90;;;;;;5035167;28;20018;-75
2021/11/22 04:50:27;;;;;;;9.83;4.50;;;22.70;99.90;;;;;;5035471;28;20409;-74
2021/11/22 04:52:55;;;;;;;12.02;4.47;;;22.60;99.90;;;;;;5035261;28;20160;-75
2021/11/22 04:55:24;;;;;;;7.68;4.05;;;22.50;99.90;;;;;;5035186;28;20018;-75
2021/11/22 04:57:52;;;;;;;14.77;4.50;;;22.30;99.90;;;;;;5034990;28;20029;-75
2021/11/22 05:00:23;;;;;;;11.30;4.95;;;22.20;99.90;;;;;;5033588;28;20036;-75
2021/11/22 05:02:51;;;;;;;11.82;4.20;;;21.90;99.90;;;;;;5033417;28;20048;-75
2021/11/22 05:05:20;;;;;;;8.00;4.05;;;21.90;99.90;;;;;;5034753;28;20080;-75
2021/11/22 05:07:48;;;;;;;13.48;4.63;;;21.70;99.90;;;;;;5033383;28;20022;-74
2021/11/22 05:10:17;;;;;;;11.70;4.25;;;21.40;99.90;;;;;;5035289;28;20526;-73
2021/11/22 05:12:45;;;;;;;9.82;4.72;;;21.20;99.90;;;;;;5035279;28;20048;-74
2021/11/22 05:15:13;;;;;;;12.68;5.05;;;21.10;99.90;;;;;;5034753;28;20065;-74
2021/11/22 05:17:41;;;;;;;13.65;6.15;;;20.80;99.90;;;;;;5034925;28;20075;-75
2021/11/22 05:20:09;;;;;;;15.55;5.78;;;20.50;99.90;;;;;;5033429;28;20088;-74
2021/11/22 05:22:37;;;;;;;12.00;7.00;;;20.10;99.90;;;;;;5033331;28;20075;-74
2021/11/22 05:25:05;;;;;;;15.20;7.53;;;20.20;99.90;;;;;;5032841;28;20029;-73
2021/11/22 05:27:33;;;;;;;17.05;9.20;;;20.00;99.90;;;;;;5034560;28;20028;-74
2021/11/22 05:30:03;;;;;;;17.77;10.60;;;19.80;99.90;;;;;;5034202;28;20046;-74
2021/11/22 05:32:30;;;;;;;16.73;10.88;;;19.50;99.90;;;;;;5033488;28;20450;-74
2021/11/22 05:34:58;;;;;;;16.83;12.30;;;19.20;99.90;;;;;;5034336;28;20025;-75
2021/11/22 05:37:28;;;;;;;17.92;12.90;;;19.20;99.90;;;;;;5034261;28;20036;-75
2021/11/22 05:39:55;;;;;;;16.83;13.80;;;19.20;99.90;;;;;;5034451;28;20100;-75
2021/11/22 05:42:23;;;;;;;16.77;13.43;;;19.40;99.90;;;;;;5034388;28;20615;-74
2021/11/22 05:44:50;;;;;;;17.13;13.68;;;19.30;99.90;;;;;;5033951;28;20025;-75
2021/11/22 05:47:18;;;;;;;21.35;15.02;;;19.30;99.90;;;;;;5034033;28;20021;-75
2021/11/22 05:49:46;;;;;;;19.65;15.15;;;19.10;99.90;;;;;;5033198;28;20460;-74
2021/11/22 05:52:15;;;;;;;15.90;14.48;;;19.10;99.90;;;;;;5034123;28;20105;-75
2021/11/22 05:54:49;;;;;;;18.05;15.50;;;18.90;99.90;;;;;;5034007;28;20501;-74
2021/11/22 05:57:17;;;;;;;17.10;15.30;;;18.80;99.90;;;;;;5033599;28;20508;-75
2021/11/22 05:59:45;;;;;;;19.27;14.65;;;18.70;99.90;;;;;;5033842;28;20105;-74
2021/11/22 06:02:13;;;;;;;18.70;16.60;;;18.70;99.90;;;;;;5032597;28;20367;-74
2021/11/22 06:04:40;;;;;;;21.13;17.38;;;18.70;99.90;;;;;;5031959;28;20049;-75
2021/11/22 06:07:08;;;;;;;18.02;15.77;;;18.70;99.90;;;;;;5032364;28;20167;-75
2021/11/22 06:09:36;;;;;;;19.45;15.88;;;18.70;99.90;;;;;;5033802;28;20053;-76
2021/11/22 06:12:04;;;;;;;21.52;16.13;;;18.70;99.90;;;;;;5033971;28;20470;-75
2021/11/22 06:14:31;;;;;;;22.40;15.50;;;18.80;99.90;;;;;;5033938;28;20021;-76
2021/11/22 06:17:00;;;;;;;18.70;15.07;;;18.80;99.90;;;;;;5032494;28;20079;-76
2021/11/22 06:19:28;;;;;;;18.05;15.40;;;18.70;99.90;;;;;;5033512;28;20033;-76
2021/11/22 06:21:55;;;;;;;19.25;15.48;;;18.60;99.90;;;;;;5032401;28;20025;-76
2021/11/22 06:24:23;;;;;;;18.50;15.80;;;18.70;99.90;;;;;;5031952;28;20079;-75
2021/11/22 06:26:54;;;;;;;16.77;14.98;;;18.70;99.90;;;;;;5033424;28;20106;-75
2021/11/22 06:29:22;;;;;;;19.38;15.85;;;18.70;99.90;;;;;;5033594;28;20045;-75
2021/11/22 06:31:50;;;;;;;17.92;15.30;;;18.70;99.90;;;;;;5033928;28;20120;-75
2021/11/22 06:34:19;;;;;;;18.30;16.48;;;18.70;99.90;;;;;;5032024;28;20518;-75
2021/11/22 06:36:46;;;;;;;23.83;17.63;;;18.90;99.90;;;;;;5032336;28;20033;-75
2021/11/22 06:39:14;;;;;;;17.33;15.30;;;18.80;99.90;;;;;;5032123;28;20029;-74
2021/11/22 06:41:42;;;;;;;20.58;14.80;;;18.90;99.90;;;;;;5033053;28;20060;-76
2021/11/22 06:44:09;;;;;;;17.13;15.15;;;18.80;99.90;;;;;;5035794;28;20033;-75
2021/11/22 06:46:36;;;;;;;18.85;14.25;;;18.80;99.90;;;;;;5036614;28;20030;-75
2021/11/22 06:49:04;;;;;;;18.85;14.50;;;18.90;99.90;;;;;;5036974;28;20041;-74
2021/11/22 06:51:31;;;;;;;22.02;14.82;;;18.90;99.90;;;;;;5037791;28;20021;-74
2021/11/22 06:53:59;;;;;;;16.98;14.63;;;19.00;99.90;;;;;;5036654;28;20401;-74
2021/11/22 06:56:26;;;;;;;17.67;14.55;;;19.10;99.90;;;;;;5037972;28;20451;-74
2021/11/22 06:58:54;;;;;;;15.88;13.80;;;19.10;99.90;;;;;;5038119;28;20026;-74
2021/11/22 07:01:21;;;;;;;21.75;14.35;;;19.10;99.90;;;;;;5037749;28;20478;-75
2021/11/22 07:03:48;;;;;;;18.05;14.15;;;19.00;99.90;;;;;;5037909;28;20046;-75
2021/11/22 07:06:15;;;;;;;18.13;14.15;;;19.20;99.90;;;;;;5037912;28;20033;-75
2021/11/22 07:08:43;;;;;;;19.80;14.10;;;19.10;99.90;;;;;;5036590;28;20120;-75
2021/11/22 07:11:10;;;;;;;16.85;13.25;;;19.10;99.90;;;;;;5036868;28;20029;-74
2021/11/22 07:13:38;;;;;;;16.17;12.90;;;19.00;99.90;;;;;;5037791;28;20104;-74
2021/11/22 07:16:06;;;;;;;20.88;13.43;;;19.10;99.90;;;;;;5037874;28;20018;-75
2021/11/22 07:18:34;;;;;;;18.60;12.75;;;19.20;99.90;;;;;;5037814;28;20117;-75
2021/11/22 07:21:01;;;;;;;25.08;13.55;;;19.30;99.90;;;;;;5037436;28;20021;-75
2021/11/22 07:23:28;;;;;;;23.13;14.23;;;19.30;99.90;;;;;;5035736;28;20017;-74
2021/11/22 07:25:58;;;;;;;17.88;13.52;;;19.40;99.90;;;;;;5037279;28;20096;-75
2021/11/22 07:28:26;;;;;;;20.15;13.80;;;19.30;99.90;;;;;;5036002;28;20029;-74
2021/11/22 07:30:54;;;;;;;18.95;13.77;;;19.30;99.90;;;;;;5037175;28;20074;-73
2021/11/22 07:33:22;;;;;;;23.40;13.90;;;19.40;99.90;;;;;;5035718;28;20037;-74
2021/11/22 07:35:49;;;;;;;16.92;11.50;;;19.40;99.90;;;;;;5036123;28;20025;-74
2021/11/22 07:38:18;;;;;;;23.63;12.32;;;19.40;99.90;;;;;;5036872;28;20025;-75
2021/11/22 07:40:45;;;;;;;18.23;11.82;;;19.40;99.90;;;;;;5036515;28;20033;-76
2021/11/22 07:43:15;;;;;;;18.42;12.77;;;19.30;99.90;;;;;;5035846;28;20478;-76
2021/11/22 07:45:43;;;;;;;18.85;11.85;;;19.40;99.90;;;;;;5037301;28;20025;-76
2021/11/22 07:48:13;;;;;;;18.20;12.50;;;19.40;99.90;;;;;;5036516;28;20018;-75
2021/11/22 07:50:42;;;;;;;18.45;11.95;;;19.50;99.90;;;;;;5036122;28;20022;-76
2021/11/22 07:53:12;;;;;;;17.55;11.65;;;19.40;99.90;;;;;;5036706;28;20502;-76
2021/11/22 07:55:39;;;;;;;17.92;11.90;;;19.40;99.90;;;;;;5034688;28;20033;-76
2021/11/22 07:58:07;;;;;;;25.73;12.63;;;19.40;99.90;;;;;;5036391;28;20024;-76
2021/11/22 08:00:34;;;;;;;16.23;10.70;;;19.30;99.90;;;;;;5036560;28;20109;-75
2021/11/22 08:03:01;;;;;;;17.85;11.10;;;19.20;99.90;;;;;;5036646;28;20529;-76
2021/11/22 08:05:31;;;;;;;16.85;11.00;;;19.10;99.90;;;;;;5036685;28;20041;-76
2021/11/22 08:07:59;;;;;;;16.88;11.02;;;19.00;99.90;;;;;;5036436;28;20100;-74
2021/11/22 08:10:28;;;;;;;20.63;12.18;;;18.90;99.90;;;;;;5035387;28;20022;-74
2021/11/22 08:13:04;;;;;;;21.67;12.80;;;18.80;99.90;;;;;;5034944;28;20048;-74
2021/11/22 08:15:33;;;;;;;17.13;12.90;;;18.70;99.90;;;;;;5036348;28;20394;-74
2021/11/22 08:18:03;;;;;;;16.17;12.43;;;18.60;99.90;;;;;;5036102;28;20104;-75
2021/11/22 08:20:31;;;;;;;17.27;13.50;;;18.60;99.90;;;;;;5034569;28;20033;-73
2021/11/22 08:22:59;;;;;;;16.45;13.13;;;18.60;99.90;;;;;;5034639;28;20060;-74
2021/11/22 08:25:29;;;;;;;17.40;13.25;;;18.50;99.90;;;;;;5034916;28;20048;-74
2021/11/22 08:27:57;;;;;;;17.52;13.65;;;18.60;99.90;;;;;;5036250;28;20476;-73
2021/11/22 08:30:26;;;;;;;20.60;13.48;;;18.50;99.90;;;;;;5034851;28;20120;-74
2021/11/22 08:32:56;;;;;;;22.20;14.90;;;18.40;99.90;;;;;;5035331;28;20075;-74
2021/11/22 08:35:24;;;;;;;19.55;15.13;;;18.40;99.90;;;;;;5036379;28;20056;-74
2021/11/22 08:37:52;;;;;;;17.42;14.73;;;18.40;99.90;;;;;;5035331;28;20161;-74
2021/11/22 08:40:21;;;;;;;18.70;14.40;;;18.30;99.90;;;;;;5035103;28;20055;-76
2021/11/22 08:42:50;;;;;;;17.05;14.32;;;18.40;99.90;;;;;;5035441;28;20033;-75
2021/11/22 08:45:18;;;;;;;18.52;14.48;;;18.30;99.90;;;;;;5036449;28;20025;-80
2021/11/22 08:47:46;;;;;;;18.05;14.23;;;18.30;99.90;;;;;;5036319;28;20088;-77
2021/11/22 08:50:14;;;;;;;24.33;14.95;;;18.20;99.90;;;;;;5035537;28;20025;-75
2021/11/22 08:52:43;;;;;;;22.40;14.00;;;18.20;99.90;;;;;;5034162;28;20494;-74
2021/11/22 08:55:11;;;;;;;18.67;14.18;;;18.20;99.90;;;;;;5034591;28;20048;-77
2021/11/22 08:57:39;;;;;;;23.60;14.57;;;18.20;99.90;;;;;;5034481;28;20025;-76
2021/11/22 09:00:14;;;;;;;20.10;13.73;;;18.10;99.90;;;;;;5036332;28;20100;-78
2021/11/22 09:02:41;;;;;;;20.15;13.82;;;18.10;99.90;;;;;;5018918;28;20037;-76
2021/11/22 09:05:08;;;;;;;20.50;16.00;;;18.10;99.90;;;;;;5034003;28;20048;-76
2021/11/22 09:07:36;;;;;;;18.55;15.18;;;18.10;99.90;;;;;;5035906;28;20053;-77
2021/11/22 09:10:05;;;;;;;19.55;15.77;;;18.10;99.90;;;;;;5035784;28;20025;-78
2021/11/22 09:12:33;;;;;;;21.80;15.48;;;18.10;99.90;;;;;;5034515;28;20080;-77
2021/11/22 09:15:00;;;;;;;18.23;15.18;;;18.10;99.90;;;;;;5034482;28;20576;-76
2021/11/22 09:17:27;;;;;;;20.95;15.55;;;18.10;99.90;;;;;;5035271;28;20086;-76
2021/11/22 09:19:55;;;;;;;20.23;15.93;;;18.10;99.90;;;;;;5035356;28;20055;-77
2021/11/22 09:22:22;;;;;;;21.73;16.70;;;18.10;99.90;;;;;;5035258;28;20032;-77
2021/11/22 09:24:49;;;;;;;25.52;15.93;;;18.10;99.90;;;;;;5035493;28;20029;-77
2021/11/22 09:27:17;;;;;;;18.23;16.23;;;18.10;99.90;;;;;;5035177;28;20025;-77
2021/11/22 09:29:44;;;;;;;21.98;16.17;;;18.10;99.90;;;;;;5033907;28;20017;-74
2021/11/22 09:32:12;;;;;;;18.38;15.55;;;18.10;99.90;;;;;;5035634;28;20049;-78
2021/11/22 09:34:39;;;;;;;20.83;15.88;;;18.10;99.90;;;;;;5035538;28;20028;-76
2021/11/22 09:37:06;;;;;;;20.15;15.45;;;18.10;99.90;;;;;;5034222;28;20061;-75
2021/11/22 09:39:34;;;;;;;22.63;14.88;;;18.10;99.90;;;;;;5034137;28;20482;-79
2021/11/22 09:42:01;;;;;;;20.52;15.35;;;18.10;99.90;;;;;;5035019;28;20076;-75
2021/11/22 09:44:28;;;;;;;23.60;15.07;;;18.10;99.90;;;;;;5034916;28;20528;-79
2021/11/22 09:46:56;;;;;;;22.52;15.07;;;18.10;99.90;;;;;;5037002;28;20021;-77
2021/11/22 09:49:24;;;;;;;26.25;15.93;;;18.10;99.90;;;;;;5035248;28;20029;-76
2021/11/22 09:51:51;;;;;;;25.58;15.40;;;18.10;99.90;;;;;;5034205;28;20021;-77
2021/11/22 09:54:20;;;;;;;23.25;15.73;;;18.10;99.90;;;;;;5034033;28;20021;-79
2021/11/22 09:56:49;;;;;;;19.90;16.15;;;18.10;99.90;;;;;;5034061;28;20387;-77
2021/11/22 09:59:18;;;;;;;21.50;15.87;;;18.10;99.90;;;;;;5034144;28;20068;-79
2021/11/22 10:01:51;;;;;;;17.45;15.13;;;18.10;99.90;;;;;;5034741;28;20270;-80
2021/11/22 10:04:19;;;;;;;18.52;15.02;;;18.10;99.90;;;;;;5018014;28;20059;-80
2021/11/22 10:06:59;;;;;;;20.92;15.20;;;18.10;99.90;;;;;;5034611;28;20556;-79
2021/11/22 10:09:36;;;;;;;22.63;15.20;;;18.10;99.90;;;;;;5035108;28;20076;-79
2021/11/22 10:12:08;;;;;;;24.17;15.32;;;18.10;99.90;;;;;;5034670;28;20104;-79
2021/11/22 10:14:42;;;;;;;18.55;15.65;;;18.10;99.90;;;;;;5035582;28;20096;-79
2021/11/22 10:17:23;;;;;;;19.45;15.70;;;18.20;99.90;;;;;;5034348;28;20072;-79
2021/11/22 10:20:14;;;;;;;21.05;16.60;;;18.10;99.90;;;;;;5035071;28;20514;-81
2021/11/22 10:22:49;;;;;;;19.73;15.77;;;18.10;99.90;;;;;;5035630;28;20099;-81
2021/11/22 10:25:37;;;;;;;25.05;15.52;;;18.10;99.90;;;;;;5035638;28;20442;-81
2021/11/22 10:28:09;;;;;;;21.23;15.60;;;18.10;99.90;;;;;;5034974;28;20049;-76
2021/11/22 10:30:53;;;;;;;17.73;15.50;;;18.10;99.90;;;;;;5035186;28;20412;-76
2021/11/22 10:33:24;;;;;;;17.38;15.00;;;18.10;99.90;;;;;;5035086;28;20028;-79
2021/11/22 10:35:55;;;;;;;22.98;15.80;;;18.20;99.90;;;;;;5035178;28;20052;-78
2021/11/22 10:38:28;;;;;;;16.63;14.38;;;18.20;99.90;;;;;;5034934;28;20036;-77
2021/11/22 10:41:19;;;;;;;21.10;15.73;;;18.20;99.90;;;;;;5017949;28;20045;-76
2021/11/22 10:44:12;;;;;;;23.30;15.85;;;18.20;99.90;;;;;;5035504;28;20030;-78
2021/11/22 10:46:53;;;;;;;21.35;14.68;;;18.20;99.90;;;;;;5039260;28;20048;-77
2021/11/22 10:49:29;;;;;;;18.23;14.07;;;18.20;99.90;;;;;;5038778;28;20456;-77
2021/11/22 10:52:52;;;;;;;19.98;14.30;;;18.20;99.90;;;;;;5035440;28;20021;-77
2021/11/22 10:55:19;;;;;;;20.13;14.05;;;18.20;99.90;;;;;;5032770;28;20041;-77
2021/11/22 10:57:50;;;;;;;18.88;13.93;;;18.20;99.90;;;;;;5033933;28;20083;-78
2021/11/22 11:00:21;;;;;;;18.20;14.65;;;18.10;99.90;;;;;;5033715;28;20029;-78
2021/11/22 11:02:50;;;;;;;17.83;14.32;;;18.10;99.90;;;;;;5033314;28;20057;-78
2021/11/22 11:05:27;;;;;;;21.00;14.43;;;18.00;99.90;;;;;;5034253;28;20133;-78
2021/11/22 11:08:07;;;;;;;21.92;14.02;;;18.00;99.90;;;;;;5033452;28;20022;-78
2021/11/22 11:10:35;;;;;;;19.27;14.52;;;18.00;99.90;;;;;;5034278;28;20075;-78
2021/11/22 11:13:04;;;;;;;16.13;14.00;;;18.00;99.90;;;;;;5034527;28;20024;-78
2021/11/22 11:15:31;;;;;;;16.55;14.77;;;17.90;99.90;;;;;;5033816;28;20025;-77
2021/11/22 11:18:00;;;;;;;17.58;14.00;;;17.90;99.90;;;;;;5033086;28;20048;-78
2021/11/22 11:20:31;;;;;;;17.85;14.63;;;17.90;99.90;;;;;;5033597;28;20450;-79
2021/11/22 11:22:58;;;;;;;15.70;14.20;;;17.80;99.90;;;;;;5035240;28;20018;-79
2021/11/22 11:25:28;;;;;;;22.42;14.93;;;17.80;99.90;;;;;;5034508;28;20133;-79
2021/11/22 11:27:55;;;;;;;17.90;14.85;;;17.80;99.90;;;;;;5035225;28;20022;-79
2021/11/22 11:30:23;;;;;;;18.88;15.02;;;17.80;99.90;;;;;;5036263;28;20006;-78
2021/11/22 11:32:53;;;;;;;19.10;14.02;;;17.90;99.90;;;;;;5039221;28;20045;-79
2021/11/22 11:35:22;;;;;;;20.50;14.10;;;17.90;99.90;;;;;;5038126;28;20203;-80
2021/11/22 11:38:07;;;;;;;13.70;12.32;;;17.90;99.90;;;;;;5037713;28;20029;-80
2021/11/22 11:41:13;;;;;;;20.30;12.30;;;18.00;99.90;;;;;;5036970;28;20032;-80
2021/11/22 11:43:53;;;;;;;15.48;12.05;;;18.00;99.90;;;;;;5037912;28;20036;-80
2021/11/22 11:46:51;;;;;;;17.98;11.82;;;18.00;99.90;;;;;;5038355;28;20029;-81
2021/11/22 11:49:18;;;;;;;19.08;12.32;;;18.00;99.90;;;;;;5037851;28;20100;-80
2021/11/22 11:51:47;;;;;;;18.17;12.45;;;18.00;99.90;;;;;;5036989;28;20080;-78
2021/11/22 11:54:22;;;;;;;14.88;11.43;;;18.00;99.90;;;;;;5037991;28;20091;-79
2021/11/22 11:56:56;;;;;;;14.20;11.82;;;18.10;99.90;;;;;;5036523;28;20036;-80
2021/11/22 11:59:29;;;;;;;19.92;13.23;;;18.10;99.90;;;;;;5036683;28;20032;-80
2021/11/22 12:02:27;;;;;;;14.23;12.75;;;18.00;99.90;;;;;;5037973;28;20079;-79
2021/11/22 12:05:08;;;;;;;16.45;12.95;;;18.10;99.90;;;;;;5037613;28;20068;-79
2021/11/22 12:07:47;;;;;;;14.30;12.70;;;18.10;99.90;;;;;;5038024;28;20442;-78
2021/11/22 12:10:20;;;;;;;17.00;13.52;;;18.10;99.90;;;;;;5036449;28;20056;-79
2021/11/22 12:12:58;;;;;;;19.75;12.48;;;18.10;99.90;;;;;;5036408;28;20025;-78
2021/11/22 12:15:27;;;;;;;20.17;12.88;;;18.00;99.90;;;;;;5037665;28;20064;-77
2021/11/22 12:17:56;;;;;;;17.10;13.35;;;18.10;99.90;;;;;;5037507;28;20021;-78
2021/11/22 12:20:27;;;;;;;14.35;11.93;;;18.10;99.90;;;;;;5037968;28;20018;-78
2021/11/22 12:22:53;;;;;;;;;;;18.10;99.90;;;;;;5038052;28;20032;-79
2021/11/22 12:25:39;;;;;;;18.77;12.98;;;18.10;99.90;;;;;;5037532;28;19909;-79
2021/11/22 12:28:14;;;;;;;16.48;12.70;;;18.10;99.90;;;;;;5036360;28;20025;-78
2021/11/22 12:31:04;;;;;;;16.15;13.07;;;18.10;99.90;;;;;;5036121;28;20029;-79
2021/11/22 12:33:46;;;;;;;16.80;12.30;;;18.10;99.90;;;;;;5035922;28;20391;-79
2021/11/22 12:36:13;;;;;;;14.40;12.55;;;18.00;99.90;;;;;;5036639;28;20044;-79
2021/11/22 12:38:43;;;;;;;19.52;13.00;;;18.00;99.90;;;;;;5037633;28;20023;-79
2021/11/22 12:41:29;;;;;;;16.50;12.80;;;18.00;99.90;;;;;;5035922;28;20021;-79
2021/11/22 12:44:01;;;;;;;15.18;12.45;;;18.00;99.90;;;;;;5036658;28;20128;-79
2021/11/22 12:46:37;;;;;;;15.07;13.65;;;18.00;99.90;;;;;;5035924;28;20108;-79